Latest Coastal Weather Observations for Neptune Island

IDT60701

Issued at 10:52 am EST Wednesday 26 July 2017 (issued every 10 minutes, with the page automatically refreshed every 10 minutes)

About coastal observations | Map of coastal stations | Coastal observations for TAS | Marine services | Other Formats
Station Details ID: 018115 Name: NEPTUNE ISLAND Lat: -35.34 Lon: 136.12 Height: 32.0 m
Data from the previous 72 hours. | See also: Recent months at Neptune Island
Date/Time
EST
Temp
°C
Wind Pressure Rain since
9am
mm
Weather Cloud Vis
km
Sea
Height
m
Swell
Dir  Spd
kts
Gust
kts
hPa Trend Height
m
Period
s
Dir
26/10:30am 14.5 SSW 7 9 1023.9 - 0.0 - - - - - - -
26/10:00am 13.6 WSW 8 9 1023.6 - 0.0 - - - - - - -
26/09:30am 12.7 SW 8 10 1023.4 - 0.2 - - - - - - -
26/09:00am 13.2 WSW 17 22 1022.8 - 0.2 - - - - - - -
26/08:30am 13.2 SW 9 14 1022.6 - 0.2 - - - - - - -
26/08:00am 12.6 SW 12 16 1022.3 - 0.2 - - - - - - -
26/07:30am 13.0 WSW 14 20 1022.3 - 0.2 - - - - - - -
26/07:00am 13.2 SW 17 21 1021.8 - 0.2 - - - - - - -
26/06:30am 13.6 WSW 16 19 1021.2 - 0.2 - - - - - - -
26/06:00am 13.8 WSW 18 22 1021.0 - 0.2 - - - - - - -
26/05:30am 13.2 SW 18 23 1021.0 - 0.2 - - - - - - -
26/05:00am 14.0 W 17 21 1020.6 - 0.2 - - - - - - -
26/04:30am 13.9 W 18 21 1020.6 - 0.2 - - - - - - -
26/04:00am 14.0 W 18 22 1020.5 - 0.2 - - - - - - -
26/03:30am 13.9 W 19 23 1020.6 - 0.2 - - - - - - -
26/03:00am 14.0 WSW 21 25 1020.8 - 0.2 - - - - - - -
26/02:30am 14.1 WSW 24 28 1020.5 - 0.2 - - - - - - -
26/02:00am 14.2 WSW 22 26 1020.4 - 0.2 - - - - - - -
26/01:30am 14.2 W 22 26 1020.1 - 0.2 - - - - - - -
26/01:00am 14.3 W 24 29 1020.2 - 0.2 - - - - - - -
26/12:30am 14.3 WSW 24 28 1020.1 - 0.2 - - - - - - -
26/12:00am 14.5 W 23 26 1020.0 - 0.2 - - - - - - -
 
Date/Time
EST
Temp
°C
Wind Pressure Rain since
9am
mm
Weather Cloud Vis
km
Sea
Height
m
Swell
Dir  Spd
kts
Gust
kts
hPa Trend Height
m
Period
s
Dir
25/11:30pm 14.5 W 25 29 1019.7 - 0.2 - - - - - - -
25/11:00pm 14.2 WSW 25 30 1019.8 - 0.2 - - - - - - -
25/10:30pm 14.4 W 24 28 1019.5 - 0.2 - - - - - - -
25/10:00pm 14.5 W 26 30 1019.4 - 0.2 - - - - - - -
25/09:30pm 13.5 W 28 33 1019.2 - 0.2 - - - - - - -
25/09:00pm 14.7 W 23 28 1018.9 - 0.2 - - - - - - -
25/08:30pm 14.7 W 23 27 1018.6 - 0.2 - - - - - - -
25/08:00pm 14.7 W 24 28 1018.3 - 0.2 - - - - - - -
25/07:30pm 14.7 W 26 33 1018.0 - 0.2 - - - - - - -
25/07:00pm 14.6 W 25 30 1017.7 - 0.2 - - - - - - -
25/06:30pm 14.4 W 25 30 1017.3 - 0.2 - - - - - - -
25/06:00pm 15.2 W 25 30 1016.9 - 0.2 - - - - - - -
25/05:30pm 15.3 W 27 32 1016.7 - 0.2 - - - - - - -
25/05:00pm 15.4 W 26 32 1016.5 - 0.2 - - - - - - -
25/04:30pm 15.6 W 26 31 1016.1 - 0.2 - - - - - - -
25/04:00pm 15.9 W 27 32 1016.0 - 0.2 - - - - - - -
25/03:30pm 15.6 WNW 25 30 1015.9 - 0.2 - - - - - - -
25/03:00pm 14.9 WNW 27 33 1015.9 - 0.2 - - - - - - -
25/02:30pm 15.0 WNW 26 31 1016.0 - 0.2 - - - - - - -
25/02:00pm 16.0 W 22 26 1016.1 - 0.0 - - - - - - -
25/01:30pm 16.1 WNW 26 31 1016.3 - 0.0 - - - - - - -
25/01:00pm 16.4 WNW 24 32 1016.6 - 0.0 - - - - - - -
25/12:30pm 16.2 WNW 25 30 1016.8 - 0.0 - - - - - - -
25/12:00pm 16.2 WNW 25 30 1017.0 - 0.0 - - - - - - -
25/11:30am 16.1 WNW 24 29 1017.3 - 0.0 - - - - - - -
25/11:00am 16.1 WNW 23 26 1017.2 - 0.0 - - - - - - -
25/10:30am 15.9 WNW 22 27 1017.2 - 0.0 - - - - - - -
25/10:00am 15.6 WNW 23 27 1017.1 - 0.0 - - - - - - -
25/09:30am 15.5 WNW 20 24 1016.9 - 0.0 - - - - - - -
25/09:00am 15.2 WNW 20 24 1016.6 - 0.0 - - - - - - -
25/08:30am 14.8 WNW 19 24 1016.5 - 0.0 - - - - - - -
25/08:00am 14.8 WNW 19 23 1016.2 - 0.0 - - - - - - -
25/07:30am 14.8 W 20 23 1015.8 - 0.0 - - - - - - -
25/07:00am 14.8 WNW 18 21 1015.4 - 0.0 - - - - - - -
25/06:30am 14.9 WNW 18 20 1015.1 - 0.0 - - - - - - -
25/06:00am 14.8 WNW 18 21 1015.1 - 0.0 - - - - - - -
25/05:30am 14.8 WNW 18 20 1015.0 - 0.0 - - - - - - -
25/05:00am 15.0 WNW 18 20 1015.0 - 0.0 - - - - - - -
25/04:30am 15.1 WNW 16 19 1014.9 - 0.0 - - - - - - -
25/04:00am 15.4 WNW 17 19 1014.9 - 0.0 - - - - - - -
25/03:30am 15.6 WNW 16 18 1014.8 - 0.0 - - - - - - -
25/03:00am 15.6 WNW 16 19 1015.0 - 0.0 - - - - - - -
25/02:30am 15.5 NW 15 17 1015.0 - 0.0 - - - - - - -
25/02:00am 15.4 NW 14 16 1015.0 - 0.0 - - - - - - -
25/01:30am 15.5 NW 15 17 1015.0 - 0.0 - - - - - - -
25/01:00am 15.5 NW 14 17 1015.0 - 0.0 - - - - - - -
25/12:30am 15.5 NW 13 16 1015.2 - 0.0 - - - - - - -
25/12:00am 15.3 NW 14 18 1015.3 - 0.0 - - - - - - -
 
Date/Time
EST
Temp
°C
Wind Pressure Rain since
9am
mm
Weather Cloud Vis
km
Sea
Height
m
Swell
Dir  Spd
kts
Gust
kts
hPa Trend Height
m
Period
s
Dir
24/11:30pm 15.4 NNW 15 17 1015.4 - 0.0 - - - - - - -
24/11:00pm 15.6 NNW 15 17 1015.6 - 0.0 - - - - - - -
24/10:30pm 15.3 N 12 15 1015.6 - 0.0 - - - - - - -
24/10:00pm 15.3 N 11 14 1015.7 - 0.0 - - - - - - -
24/09:30pm 15.4 N 14 15 1015.7 - 0.0 - - - - - - -
24/09:00pm 15.5 N 12 16 1015.9 - 0.0 - - - - - - -
24/08:30pm 15.4 N 11 13 1016.1 - 0.0 - - - - - - -
24/08:00pm 15.8 N 12 15 1016.2 - 0.0 - - - - - - -
24/07:30pm 16.2 N 12 14 1016.1 - 0.0 - - - - - - -
24/07:00pm 16.2 N 11 14 1015.9 - 0.0 - - - - - - -
24/06:30pm 16.5 NNW 13 15 1015.7 - 0.0 - - - - - - -
24/06:00pm 16.9 NNW 12 15 1015.7 - 0.0 - - - - - - -
24/05:30pm 17.2 N 11 13 1015.5 - 0.0 - - - - - - -
24/05:00pm 17.6 N 10 13 1015.7 - 0.0 - - - - - - -
24/04:30pm 17.6 N 8 10 1015.7 - 0.0 - - - - - - -
24/04:00pm 17.8 N 8 9 1015.9 - 0.0 - - - - - - -
24/03:30pm 17.5 NNE 9 11 1016.1 - 0.0 - - - - - - -
24/03:00pm 17.5 NNE 11 13 1016.1 - 0.0 - - - - - - -
24/02:30pm 17.6 N 12 14 1016.3 - 0.0 - - - - - - -
24/02:00pm 17.3 NNW 15 18 1017.1 - 0.0 - - - - - - -
24/01:30pm 16.9 NNW 15 18 1017.5 - 0.0 - - - - - - -
24/01:00pm 16.6 NNW 15 17 1018.1 - 0.0 - - - - - - -
24/12:30pm 16.0 NNW 16 19 1018.7 - 0.0 - - - - - - -
24/12:00pm 15.6 NNW 15 19 1019.2 - 0.0 - - - - - - -
24/11:30am 15.4 N 15 18 1019.4 - 0.0 - - - - - - -
24/11:00am 14.9 N 15 18 1019.5 - 0.0 - - - - - - -
24/10:30am 14.8 N 16 18 1019.6 - 0.0 - - - - - - -
24/10:00am 14.4 N 15 17 1019.4 - 0.0 - - - - - - -
24/09:30am 14.2 N 15 17 1019.3 - 0.6 - - - - - - -
24/09:00am 13.8 N 16 19 1019.0 - 0.6 - - - - - - -
24/08:30am 13.5 N 14 17 1018.9 - 0.6 - - - - - - -
24/08:00am 13.3 N 11 14 1018.9 - 0.6 - - - - - - -
24/07:30am 13.2 N 11 13 1018.8 - 0.6 - - - - - - -
24/07:00am 13.5 N 13 15 1018.9 - 0.6 - - - - - - -
24/06:30am 13.5 N 12 14 1018.7 - 0.6 - - - - - - -
24/06:00am 13.3 N 11 13 1018.7 - 0.6 - - - - - - -
24/05:30am 13.6 NNW 11 13 1018.4 - 0.6 - - - - - - -
24/05:00am 13.7 NNW 11 13 1018.6 - 0.6 - - - - - - -
24/04:30am 13.6 NNW 13 15 1018.7 - 0.6 - - - - - - -
24/04:00am 13.8 NNW 14 16 1018.9 - 0.6 - - - - - - -
24/03:30am 14.2 NW 12 15 1019.0 - 0.6 - - - - - - -
24/03:00am 14.2 NW 12 15 1019.1 - 0.6 - - - - - - -
24/02:30am 14.1 NW 12 14 1019.0 - 0.6 - - - - - - -
24/02:00am 14.2 NW 11 14 1018.9 - 0.6 - - - - - - -
24/01:30am 14.1 WNW 12 14 1019.0 - 0.6 - - - - - - -
24/01:00am 14.3 W 14 17 1019.3 - 0.6 - - - - - - -
24/12:30am 14.3 W 13 15 1019.4 - 0.6 - - - - - - -
24/12:00am 14.2 W 15 17 1019.6 - 0.6 - - - - - - -
 
Date/Time
EST
Temp
°C
Wind Pressure Rain since
9am
mm
Weather Cloud Vis
km
Sea
Height
m
Swell
Dir  Spd
kts
Gust
kts
hPa Trend Height
m
Period
s
Dir
23/11:30pm 14.2 W 15 17 1019.7 - 0.6 - - - - - - -
23/11:00pm 14.2 W 13 15 1019.5 - 0.6 - - - - - - -
23/10:30pm 14.3 W 15 17 1019.5 - 0.4 - - - - - - -
23/10:00pm 14.3 W 15 19 1019.5 - 0.0 - - - - - - -
23/09:30pm 14.7 W 14 16 1019.3 - 0.0 - - - - - - -
23/09:00pm 14.6 W 15 17 1019.1 - 0.0 - - - - - - -
23/08:30pm 14.5 W 15 18 1018.7 - 0.0 - - - - - - -
23/08:00pm 14.5 W 16 19 1018.4 - 0.0 - - - - - - -
23/07:30pm 14.7 W 17 20 1018.0 - 0.0 - - - - - - -
23/07:00pm 14.8 W 16 20 1017.9 - 0.0 - - - - - - -
23/06:30pm 14.6 W 16 19 1017.7 - 0.0 - - - - - - -
23/06:00pm 14.4 W 18 22 1017.5 - 0.0 - - - - - - -
23/05:30pm 14.9 W 21 25 1017.3 - 0.0 - - - - - - -
23/05:00pm 15.1 W 21 24 1017.2 - 0.0 - - - - - - -
23/04:30pm 15.2 W 20 23 1017.1 - 0.0 - - - - - - -
23/04:00pm 15.4 W 23 29 1016.9 - 0.0 - - - - - - -
23/03:30pm 15.5 W 23 26 1016.8 - 0.0 - - - - - - -
23/03:00pm 15.8 W 23 27 1016.7 - 0.0 - - - - - - -
23/02:30pm 15.5 W 21 25 1016.7 - 0.0 - - - - - - -
23/02:00pm 15.4 W 25 31 1016.6 - 0.0 - - - - - - -
23/01:30pm 16.0 W 24 29 1016.9 - 0.0 - - - - - - -
23/01:00pm 15.6 W 25 29 1017.1 - 0.0 - - - - - - -
23/12:30pm 15.7 W 23 28 1017.3 - 0.0 - - - - - - -
23/12:00pm 16.0 W 21 25 1017.5 - 0.0 - - - - - - -
23/11:30am 15.6 W 22 26 1017.4 - 0.0 - - - - - - -

Other Formats:

Comma delimited format used in spreadsheet applications
http://www.bom.gov.au/fwo/IDT60701/IDT60701.94804.axf

JavaScript Object Notation format (JSON) in row-major order
http://www.bom.gov.au/fwo/IDT60701/IDT60701.94804.json